sensor_id;sensor_type;location;lat;lon;timestamp;temperature;humidity
24518;DHT22;12678;51.336;12.406;2023-09-19T00:01:06;21.00;99.90
24518;DHT22;12678;51.336;12.406;2023-09-19T00:03:36;20.90;99.90
24518;DHT22;12678;51.336;12.406;2023-09-19T00:06:03;20.90;99.90
24518;DHT22;12678;51.336;12.406;2023-09-19T00:08:30;20.90;99.90
24518;DHT22;12678;51.336;12.406;2023-09-19T00:10:56;20.90;99.90
24518;DHT22;12678;51.336;12.406;2023-09-19T00:13:22;20.80;99.90
24518;DHT22;12678;51.336;12.406;2023-09-19T00:15:48;20.90;99.90
24518;DHT22;12678;51.336;12.406;2023-09-19T00:18:14;20.80;99.90
24518;DHT22;12678;51.336;12.406;2023-09-19T00:20:41;20.80;99.90
24518;DHT22;12678;51.336;12.406;2023-09-19T00:23:07;20.90;99.90
24518;DHT22;12678;51.336;12.406;2023-09-19T00:25:36;20.90;99.90
24518;DHT22;12678;51.336;12.406;2023-09-19T00:28:03;21.00;99.90
24518;DHT22;12678;51.336;12.406;2023-09-19T00:30:30;21.00;99.90
24518;DHT22;12678;51.336;12.406;2023-09-19T00:32:55;20.90;99.90
24518;DHT22;12678;51.336;12.406;2023-09-19T00:35:21;20.80;99.90
24518;DHT22;12678;51.336;12.406;2023-09-19T00:37:50;20.90;99.90
24518;DHT22;12678;51.336;12.406;2023-09-19T00:40:16;20.80;99.90
24518;DHT22;12678;51.336;12.406;2023-09-19T00:42:46;20.80;99.90
24518;DHT22;12678;51.336;12.406;2023-09-19T00:45:14;20.70;99.90
24518;DHT22;12678;51.336;12.406;2023-09-19T00:47:42;20.80;99.90
24518;DHT22;12678;51.336;12.406;2023-09-19T00:50:09;20.80;99.90
24518;DHT22;12678;51.336;12.406;2023-09-19T00:52:37;20.60;99.90
24518;DHT22;12678;51.336;12.406;2023-09-19T00:55:05;20.70;99.90
24518;DHT22;12678;51.336;12.406;2023-09-19T00:57:31;20.60;99.90
24518;DHT22;12678;51.336;12.406;2023-09-19T00:59:58;20.70;99.90
24518;DHT22;12678;51.336;12.406;2023-09-19T01:02:24;20.50;99.90
24518;DHT22;12678;51.336;12.406;2023-09-19T01:04:52;20.60;99.90
24518;DHT22;12678;51.336;12.406;2023-09-19T01:07:19;20.70;99.90
24518;DHT22;12678;51.336;12.406;2023-09-19T01:09:44;20.60;99.90
24518;DHT22;12678;51.336;12.406;2023-09-19T01:12:13;20.60;99.90
24518;DHT22;12678;51.336;12.406;2023-09-19T01:14:53;20.60;99.90
24518;DHT22;12678;51.336;12.406;2023-09-19T01:17:31;20.60;99.90
24518;DHT22;12678;51.336;12.406;2023-09-19T01:31:24;20.60;99.90
24518;DHT22;12678;51.336;12.406;2023-09-19T01:33:55;20.60;99.90
24518;DHT22;12678;51.336;12.406;2023-09-19T01:36:26;20.50;99.90
24518;DHT22;12678;51.336;12.406;2023-09-19T01:38:52;20.50;99.90
24518;DHT22;12678;51.336;12.406;2023-09-19T01:41:26;20.50;99.90
24518;DHT22;12678;51.336;12.406;2023-09-19T01:43:52;20.50;99.90
24518;DHT22;12678;51.336;12.406;2023-09-19T01:46:24;20.40;99.90
24518;DHT22;12678;51.336;12.406;2023-09-19T01:48:56;20.30;99.90
24518;DHT22;12678;51.336;12.406;2023-09-19T01:51:34;20.40;99.90
24518;DHT22;12678;51.336;12.406;2023-09-19T01:54:06;20.40;99.90
24518;DHT22;12678;51.336;12.406;2023-09-19T01:57:26;20.40;99.90
24518;DHT22;12678;51.336;12.406;2023-09-19T01:59:35;20.50;99.90
24518;DHT22;12678;51.336;12.406;2023-09-19T02:02:03;20.50;99.90
24518;DHT22;12678;51.336;12.406;2023-09-19T02:04:32;20.50;99.90
24518;DHT22;12678;51.336;12.406;2023-09-19T02:06:58;20.50;99.90
24518;DHT22;12678;51.336;12.406;2023-09-19T02:09:24;20.30;99.90
24518;DHT22;12678;51.336;12.406;2023-09-19T02:11:50;20.30;99.90
24518;DHT22;12678;51.336;12.406;2023-09-19T02:14:16;20.40;99.90
24518;DHT22;12678;51.336;12.406;2023-09-19T02:16:42;20.40;99.90
24518;DHT22;12678;51.336;12.406;2023-09-19T02:19:08;20.40;99.90
24518;DHT22;12678;51.336;12.406;2023-09-19T02:21:33;20.20;99.90
24518;DHT22;12678;51.336;12.406;2023-09-19T02:23:59;20.20;99.90
24518;DHT22;12678;51.336;12.406;2023-09-19T02:26:24;20.30;99.90
24518;DHT22;12678;51.336;12.406;2023-09-19T02:28:50;20.40;99.90
24518;DHT22;12678;51.336;12.406;2023-09-19T02:31:16;20.40;99.90
24518;DHT22;12678;51.336;12.406;2023-09-19T02:33:42;20.40;99.90
24518;DHT22;12678;51.336;12.406;2023-09-19T02:36:08;20.50;99.90
24518;DHT22;12678;51.336;12.406;2023-09-19T02:38:34;20.60;99.90
24518;DHT22;12678;51.336;12.406;2023-09-19T02:41:00;20.60;99.90
24518;DHT22;12678;51.336;12.406;2023-09-19T02:43:25;20.50;99.90
24518;DHT22;12678;51.336;12.406;2023-09-19T02:45:51;20.50;99.90
24518;DHT22;12678;51.336;12.406;2023-09-19T02:48:19;20.30;99.90
24518;DHT22;12678;51.336;12.406;2023-09-19T02:50:44;20.30;99.90
24518;DHT22;12678;51.336;12.406;2023-09-19T02:53:10;20.40;99.90
24518;DHT22;12678;51.336;12.406;2023-09-19T02:55:38;20.40;99.90
24518;DHT22;12678;51.336;12.406;2023-09-19T02:58:06;20.30;99.90
24518;DHT22;12678;51.336;12.406;2023-09-19T03:00:33;20.30;99.90
24518;DHT22;12678;51.336;12.406;2023-09-19T03:03:01;20.20;99.90
24518;DHT22;12678;51.336;12.406;2023-09-19T03:05:27;20.20;99.90
24518;DHT22;12678;51.336;12.406;2023-09-19T03:07:56;20.10;99.90
24518;DHT22;12678;51.336;12.406;2023-09-19T03:10:22;20.20;99.90
24518;DHT22;12678;51.336;12.406;2023-09-19T03:12:49;20.20;99.90
24518;DHT22;12678;51.336;12.406;2023-09-19T03:15:15;20.20;99.90
24518;DHT22;12678;51.336;12.406;2023-09-19T03:17:45;20.10;99.90
24518;DHT22;12678;51.336;12.406;2023-09-19T03:20:11;20.10;99.90
24518;DHT22;12678;51.336;12.406;2023-09-19T03:22:38;20.00;99.90
24518;DHT22;12678;51.336;12.406;2023-09-19T03:25:06;20.00;99.90
24518;DHT22;12678;51.336;12.406;2023-09-19T03:27:34;20.10;99.90
24518;DHT22;12678;51.336;12.406;2023-09-19T03:30:00;20.10;99.90
24518;DHT22;12678;51.336;12.406;2023-09-19T03:32:26;20.20;99.90
24518;DHT22;12678;51.336;12.406;2023-09-19T03:34:52;20.20;99.90
24518;DHT22;12678;51.336;12.406;2023-09-19T03:37:17;20.20;99.90
24518;DHT22;12678;51.336;12.406;2023-09-19T03:39:43;20.20;99.90
24518;DHT22;12678;51.336;12.406;2023-09-19T03:42:09;20.20;99.90
24518;DHT22;12678;51.336;12.406;2023-09-19T03:44:35;20.20;99.90
24518;DHT22;12678;51.336;12.406;2023-09-19T03:47:00;20.20;99.90
24518;DHT22;12678;51.336;12.406;2023-09-19T03:49:26;20.30;99.90
24518;DHT22;12678;51.336;12.406;2023-09-19T03:51:51;20.30;99.90
24518;DHT22;12678;51.336;12.406;2023-09-19T03:54:17;20.30;99.90
24518;DHT22;12678;51.336;12.406;2023-09-19T03:56:45;20.30;99.90
24518;DHT22;12678;51.336;12.406;2023-09-19T03:59:10;20.30;99.90
24518;DHT22;12678;51.336;12.406;2023-09-19T04:01:37;20.30;99.90
24518;DHT22;12678;51.336;12.406;2023-09-19T04:04:03;20.30;99.90
24518;DHT22;12678;51.336;12.406;2023-09-19T04:06:36;20.30;99.90
24518;DHT22;12678;51.336;12.406;2023-09-19T04:09:05;20.30;99.90
24518;DHT22;12678;51.336;12.406;2023-09-19T04:11:33;20.20;99.90
24518;DHT22;12678;51.336;12.406;2023-09-19T04:13:58;20.30;99.90
24518;DHT22;12678;51.336;12.406;2023-09-19T04:16:24;20.30;99.90
24518;DHT22;12678;51.336;12.406;2023-09-19T04:18:50;20.20;99.90
24518;DHT22;12678;51.336;12.406;2023-09-19T04:21:15;20.20;99.90
24518;DHT22;12678;51.336;12.406;2023-09-19T04:23:41;20.20;99.90
24518;DHT22;12678;51.336;12.406;2023-09-19T04:26:08;20.10;99.90
24518;DHT22;12678;51.336;12.406;2023-09-19T04:28:33;20.00;99.90
24518;DHT22;12678;51.336;12.406;2023-09-19T04:31:00;20.00;99.90
24518;DHT22;12678;51.336;12.406;2023-09-19T04:33:26;20.00;99.90
24518;DHT22;12678;51.336;12.406;2023-09-19T04:35:55;20.00;99.90
24518;DHT22;12678;51.336;12.406;2023-09-19T04:38:21;20.10;99.90
24518;DHT22;12678;51.336;12.406;2023-09-19T04:40:47;20.00;99.90
24518;DHT22;12678;51.336;12.406;2023-09-19T04:43:13;20.10;99.90
24518;DHT22;12678;51.336;12.406;2023-09-19T04:45:39;20.10;99.90
24518;DHT22;12678;51.336;12.406;2023-09-19T04:48:05;20.00;99.90
24518;DHT22;12678;51.336;12.406;2023-09-19T04:50:34;20.00;99.90
24518;DHT22;12678;51.336;12.406;2023-09-19T04:53:00;20.10;99.90
24518;DHT22;12678;51.336;12.406;2023-09-19T04:55:26;20.10;99.90
24518;DHT22;12678;51.336;12.406;2023-09-19T04:57:52;19.90;99.90
24518;DHT22;12678;51.336;12.406;2023-09-19T05:00:20;19.80;99.90
24518;DHT22;12678;51.336;12.406;2023-09-19T05:02:54;19.60;99.90
24518;DHT22;12678;51.336;12.406;2023-09-19T05:05:21;19.60;99.90
24518;DHT22;12678;51.336;12.406;2023-09-19T05:07:48;19.60;99.90
24518;DHT22;12678;51.336;12.406;2023-09-19T05:10:14;19.80;99.90
24518;DHT22;12678;51.336;12.406;2023-09-19T05:12:40;19.70;99.90
24518;DHT22;12678;51.336;12.406;2023-09-19T05:15:07;19.60;99.90
24518;DHT22;12678;51.336;12.406;2023-09-19T05:17:33;19.60;99.90
24518;DHT22;12678;51.336;12.406;2023-09-19T05:19:59;19.50;99.90
24518;DHT22;12678;51.336;12.406;2023-09-19T05:22:31;19.70;99.90
24518;DHT22;12678;51.336;12.406;2023-09-19T05:24:58;19.80;99.90
24518;DHT22;12678;51.336;12.406;2023-09-19T05:27:24;20.00;99.90
24518;DHT22;12678;51.336;12.406;2023-09-19T05:29:50;20.00;99.90
24518;DHT22;12678;51.336;12.406;2023-09-19T05:32:18;20.10;99.90
24518;DHT22;12678;51.336;12.406;2023-09-19T05:34:45;19.90;99.90
24518;DHT22;12678;51.336;12.406;2023-09-19T05:37:11;20.10;99.90
24518;DHT22;12678;51.336;12.406;2023-09-19T05:39:36;20.10;99.90
24518;DHT22;12678;51.336;12.406;2023-09-19T05:42:03;20.20;99.90
24518;DHT22;12678;51.336;12.406;2023-09-19T05:44:28;20.10;99.90
24518;DHT22;12678;51.336;12.406;2023-09-19T05:46:54;20.10;99.90
24518;DHT22;12678;51.336;12.406;2023-09-19T05:49:22;20.20;99.90
24518;DHT22;12678;51.336;12.406;2023-09-19T05:51:47;20.20;99.90
24518;DHT22;12678;51.336;12.406;2023-09-19T05:54:13;20.20;99.90
24518;DHT22;12678;51.336;12.406;2023-09-19T05:56:38;20.30;99.90
24518;DHT22;12678;51.336;12.406;2023-09-19T05:59:04;20.20;99.90
24518;DHT22;12678;51.336;12.406;2023-09-19T06:01:30;20.20;99.90
24518;DHT22;12678;51.336;12.406;2023-09-19T06:03:58;20.30;99.90
24518;DHT22;12678;51.336;12.406;2023-09-19T06:06:25;20.40;99.90
24518;DHT22;12678;51.336;12.406;2023-09-19T06:08:50;20.30;99.90
24518;DHT22;12678;51.336;12.406;2023-09-19T06:11:16;20.20;99.90
24518;DHT22;12678;51.336;12.406;2023-09-19T06:13:41;20.20;99.90
24518;DHT22;12678;51.336;12.406;2023-09-19T06:16:07;20.30;99.90
24518;DHT22;12678;51.336;12.406;2023-09-19T06:18:34;20.40;99.90
24518;DHT22;12678;51.336;12.406;2023-09-19T06:21:00;20.40;99.90
24518;DHT22;12678;51.336;12.406;2023-09-19T06:23:30;20.40;99.90
24518;DHT22;12678;51.336;12.406;2023-09-19T06:25:56;20.50;99.90
24518;DHT22;12678;51.336;12.406;2023-09-19T06:28:23;20.50;99.90
24518;DHT22;12678;51.336;12.406;2023-09-19T06:30:51;20.50;99.90
24518;DHT22;12678;51.336;12.406;2023-09-19T06:33:16;20.50;99.90
24518;DHT22;12678;51.336;12.406;2023-09-19T06:35:43;20.50;99.90
24518;DHT22;12678;51.336;12.406;2023-09-19T06:38:12;20.50;99.90
24518;DHT22;12678;51.336;12.406;2023-09-19T06:40:38;20.50;99.90
24518;DHT22;12678;51.336;12.406;2023-09-19T06:43:05;20.50;99.90
24518;DHT22;12678;51.336;12.406;2023-09-19T06:45:30;20.40;99.90
24518;DHT22;12678;51.336;12.406;2023-09-19T06:47:57;20.50;99.90
24518;DHT22;12678;51.336;12.406;2023-09-19T06:50:25;20.50;99.90
24518;DHT22;12678;51.336;12.406;2023-09-19T06:52:53;20.60;99.90
24518;DHT22;12678;51.336;12.406;2023-09-19T06:55:20;20.50;99.90
24518;DHT22;12678;51.336;12.406;2023-09-19T06:57:46;20.70;99.90
24518;DHT22;12678;51.336;12.406;2023-09-19T07:00:13;20.60;99.90
24518;DHT22;12678;51.336;12.406;2023-09-19T07:02:59;20.70;99.90
24518;DHT22;12678;51.336;12.406;2023-09-19T07:05:27;20.80;99.90
24518;DHT22;12678;51.336;12.406;2023-09-19T07:07:53;20.80;99.90
24518;DHT22;12678;51.336;12.406;2023-09-19T07:10:20;21.00;99.90
24518;DHT22;12678;51.336;12.406;2023-09-19T07:12:59;21.30;99.90
24518;DHT22;12678;51.336;12.406;2023-09-19T07:15:26;21.30;99.90
24518;DHT22;12678;51.336;12.406;2023-09-19T07:17:52;21.20;99.90
24518;DHT22;12678;51.336;12.406;2023-09-19T07:20:19;21.20;99.90
24518;DHT22;12678;51.336;12.406;2023-09-19T07:22:45;21.20;99.90
24518;DHT22;12678;51.336;12.406;2023-09-19T07:25:10;21.20;99.90
24518;DHT22;12678;51.336;12.406;2023-09-19T07:27:36;21.10;99.90
24518;DHT22;12678;51.336;12.406;2023-09-19T07:30:02;21.40;99.90
24518;DHT22;12678;51.336;12.406;2023-09-19T07:32:27;21.80;99.90
24518;DHT22;12678;51.336;12.406;2023-09-19T07:34:53;21.80;99.90
24518;DHT22;12678;51.336;12.406;2023-09-19T07:37:20;21.60;99.90
24518;DHT22;12678;51.336;12.406;2023-09-19T07:39:46;21.50;99.90
24518;DHT22;12678;51.336;12.406;2023-09-19T07:42:12;21.70;99.90
24518;DHT22;12678;51.336;12.406;2023-09-19T07:44:43;22.30;99.90
24518;DHT22;12678;51.336;12.406;2023-09-19T07:47:12;22.40;99.90
24518;DHT22;12678;51.336;12.406;2023-09-19T07:49:38;22.70;99.90
24518;DHT22;12678;51.336;12.406;2023-09-19T07:52:03;23.10;99.90
24518;DHT22;12678;51.336;12.406;2023-09-19T07:54:29;23.40;99.90
24518;DHT22;12678;51.336;12.406;2023-09-19T07:57:03;23.30;99.90
24518;DHT22;12678;51.336;12.406;2023-09-19T07:59:29;22.90;99.90
24518;DHT22;12678;51.336;12.406;2023-09-19T08:01:55;22.80;99.90
24518;DHT22;12678;51.336;12.406;2023-09-19T08:04:20;22.70;99.90
24518;DHT22;12678;51.336;12.406;2023-09-19T08:06:46;22.60;99.90
24518;DHT22;12678;51.336;12.406;2023-09-19T08:09:12;22.20;99.90
24518;DHT22;12678;51.336;12.406;2023-09-19T08:11:42;22.10;99.90
24518;DHT22;12678;51.336;12.406;2023-09-19T08:14:09;22.00;99.90
24518;DHT22;12678;51.336;12.406;2023-09-19T08:16:35;21.90;99.90
24518;DHT22;12678;51.336;12.406;2023-09-19T08:19:00;21.70;99.90
24518;DHT22;12678;51.336;12.406;2023-09-19T08:21:26;21.70;99.90
24518;DHT22;12678;51.336;12.406;2023-09-19T08:23:54;21.70;99.90
24518;DHT22;12678;51.336;12.406;2023-09-19T08:26:20;21.50;99.90
24518;DHT22;12678;51.336;12.406;2023-09-19T08:28:46;21.50;99.90
24518;DHT22;12678;51.336;12.406;2023-09-19T08:31:13;21.50;99.90
24518;DHT22;12678;51.336;12.406;2023-09-19T08:33:39;21.40;99.90
24518;DHT22;12678;51.336;12.406;2023-09-19T08:36:06;21.20;99.90
24518;DHT22;12678;51.336;12.406;2023-09-19T08:38:34;21.10;99.90
24518;DHT22;12678;51.336;12.406;2023-09-19T08:41:00;21.20;99.90
24518;DHT22;12678;51.336;12.406;2023-09-19T08:43:26;21.20;99.90
24518;DHT22;12678;51.336;12.406;2023-09-19T08:46:02;21.20;99.90
24518;DHT22;12678;51.336;12.406;2023-09-19T08:48:29;21.20;99.90
24518;DHT22;12678;51.336;12.406;2023-09-19T08:54:31;21.50;99.90
24518;DHT22;12678;51.336;12.406;2023-09-19T08:57:00;21.70;99.90
24518;DHT22;12678;51.336;12.406;2023-09-19T08:59:32;21.70;99.90
24518;DHT22;12678;51.336;12.406;2023-09-19T09:02:00;21.80;99.90
24518;DHT22;12678;51.336;12.406;2023-09-19T09:04:27;21.90;99.90
24518;DHT22;12678;51.336;12.406;2023-09-19T09:06:53;21.70;99.90
24518;DHT22;12678;51.336;12.406;2023-09-19T09:09:20;21.70;99.90
24518;DHT22;12678;51.336;12.406;2023-09-19T09:11:50;22.00;99.90
24518;DHT22;12678;51.336;12.406;2023-09-19T09:14:19;22.10;99.90
24518;DHT22;12678;51.336;12.406;2023-09-19T09:16:45;22.20;99.90
24518;DHT22;12678;51.336;12.406;2023-09-19T09:19:11;22.40;99.90
24518;DHT22;12678;51.336;12.406;2023-09-19T09:21:38;22.40;99.90
24518;DHT22;12678;51.336;12.406;2023-09-19T09:24:26;22.40;99.90
24518;DHT22;12678;51.336;12.406;2023-09-19T09:26:54;22.30;99.90
24518;DHT22;12678;51.336;12.406;2023-09-19T09:29:43;22.30;99.90
24518;DHT22;12678;51.336;12.406;2023-09-19T09:34:52;22.10;99.90
24518;DHT22;12678;51.336;12.406;2023-09-19T09:37:19;22.10;99.90
24518;DHT22;12678;51.336;12.406;2023-09-19T09:39:58;21.90;99.90
24518;DHT22;12678;51.336;12.406;2023-09-19T09:42:37;21.80;99.90
24518;DHT22;12678;51.336;12.406;2023-09-19T09:47:54;22.10;99.90
24518;DHT22;12678;51.336;12.406;2023-09-19T09:50:36;22.10;99.90
24518;DHT22;12678;51.336;12.406;2023-09-19T09:53:21;22.10;99.90
24518;DHT22;12678;51.336;12.406;2023-09-19T09:56:07;22.30;99.90
24518;DHT22;12678;51.336;12.406;2023-09-19T09:58:57;22.20;99.90
24518;DHT22;12678;51.336;12.406;2023-09-19T10:01:24;22.20;99.90
24518;DHT22;12678;51.336;12.406;2023-09-19T10:03:57;22.40;99.90
24518;DHT22;12678;51.336;12.406;2023-09-19T10:06:23;22.30;99.90
24518;DHT22;12678;51.336;12.406;2023-09-19T10:09:03;22.20;99.10
24518;DHT22;12678;51.336;12.406;2023-09-19T10:11:37;22.10;99.20
24518;DHT22;12678;51.336;12.406;2023-09-19T10:14:05;22.10;99.70
24518;DHT22;12678;51.336;12.406;2023-09-19T10:16:32;22.10;99.90
24518;DHT22;12678;51.336;12.406;2023-09-19T10:19:02;22.20;99.90
24518;DHT22;12678;51.336;12.406;2023-09-19T10:21:31;22.20;99.90
24518;DHT22;12678;51.336;12.406;2023-09-19T10:23:58;22.20;99.90
24518;DHT22;12678;51.336;12.406;2023-09-19T10:26:26;22.30;99.90
24518;DHT22;12678;51.336;12.406;2023-09-19T10:28:57;22.30;99.90
24518;DHT22;12678;51.336;12.406;2023-09-19T10:31:26;22.30;99.90
24518;DHT22;12678;51.336;12.406;2023-09-19T10:33:53;22.10;99.70
24518;DHT22;12678;51.336;12.406;2023-09-19T10:36:23;22.10;99.90
24518;DHT22;12678;51.336;12.406;2023-09-19T10:38:52;22.10;99.90
24518;DHT22;12678;51.336;12.406;2023-09-19T10:41:22;21.90;99.90
24518;DHT22;12678;51.336;12.406;2023-09-19T10:43:48;22.10;99.90
24518;DHT22;12678;51.336;12.406;2023-09-19T10:46:14;22.00;99.90
24518;DHT22;12678;51.336;12.406;2023-09-19T10:48:41;22.10;99.90
24518;DHT22;12678;51.336;12.406;2023-09-19T10:51:18;22.10;99.90
24518;DHT22;12678;51.336;12.406;2023-09-19T10:56:21;22.30;99.90
24518;DHT22;12678;51.336;12.406;2023-09-19T10:58:47;22.40;99.90
24518;DHT22;12678;51.336;12.406;2023-09-19T11:01:14;22.40;99.90
24518;DHT22;12678;51.336;12.406;2023-09-19T11:03:41;22.40;99.90
24518;DHT22;12678;51.336;12.406;2023-09-19T11:06:14;22.40;99.90
24518;DHT22;12678;51.336;12.406;2023-09-19T11:30:35;21.70;98.30
24518;DHT22;12678;51.336;12.406;2023-09-19T11:33:24;21.80;97.50
24518;DHT22;12678;51.336;12.406;2023-09-19T11:36:09;21.80;99.40
24518;DHT22;12678;51.336;12.406;2023-09-19T11:39:01;22.00;99.90
24518;DHT22;12678;51.336;12.406;2023-09-19T11:41:38;22.20;99.40
24518;DHT22;12678;51.336;12.406;2023-09-19T11:46:52;22.20;97.10
24518;DHT22;12678;51.336;12.406;2023-09-19T11:49:19;22.30;99.70
24518;DHT22;12678;51.336;12.406;2023-09-19T11:51:50;22.30;96.30
24518;DHT22;12678;51.336;12.406;2023-09-19T11:54:17;22.20;99.50
24518;DHT22;12678;51.336;12.406;2023-09-19T11:56:54;22.30;99.30
24518;DHT22;12678;51.336;12.406;2023-09-19T11:59:21;22.20;97.10
24518;DHT22;12678;51.336;12.406;2023-09-19T12:01:52;22.20;96.20
24518;DHT22;12678;51.336;12.406;2023-09-19T12:04:43;22.10;95.10
24518;DHT22;12678;51.336;12.406;2023-09-19T12:07:11;22.00;96.30
24518;DHT22;12678;51.336;12.406;2023-09-19T12:09:44;22.00;95.40
24518;DHT22;12678;51.336;12.406;2023-09-19T12:14:48;22.20;96.20
24518;DHT22;12678;51.336;12.406;2023-09-19T12:17:13;22.20;96.90
24518;DHT22;12678;51.336;12.406;2023-09-19T12:19:50;22.10;96.50
24518;DHT22;12678;51.336;12.406;2023-09-19T12:22:16;22.20;97.60
24518;DHT22;12678;51.336;12.406;2023-09-19T12:24:43;22.20;99.00
24518;DHT22;12678;51.336;12.406;2023-09-19T12:27:10;22.30;98.80
24518;DHT22;12678;51.336;12.406;2023-09-19T12:29:47;22.30;96.90
24518;DHT22;12678;51.336;12.406;2023-09-19T12:32:36;22.10;95.80
24518;DHT22;12678;51.336;12.406;2023-09-19T12:35:06;21.90;96.90
24518;DHT22;12678;51.336;12.406;2023-09-19T12:37:36;21.90;96.70
24518;DHT22;12678;51.336;12.406;2023-09-19T12:40:07;21.80;97.30
24518;DHT22;12678;51.336;12.406;2023-09-19T12:42:47;21.90;98.40
24518;DHT22;12678;51.336;12.406;2023-09-19T12:45:14;22.00;96.50
24518;DHT22;12678;51.336;12.406;2023-09-19T12:47:41;22.00;95.60
24518;DHT22;12678;51.336;12.406;2023-09-19T12:50:26;22.00;96.00
24518;DHT22;12678;51.336;12.406;2023-09-19T12:52:55;22.00;97.90
24518;DHT22;12678;51.336;12.406;2023-09-19T12:55:26;22.00;97.00
24518;DHT22;12678;51.336;12.406;2023-09-19T13:03:18;22.00;96.70
24518;DHT22;12678;51.336;12.406;2023-09-19T13:06:01;22.00;95.40
24518;DHT22;12678;51.336;12.406;2023-09-19T13:08:32;22.00;95.50
24518;DHT22;12678;51.336;12.406;2023-09-19T13:11:04;22.10;96.10
24518;DHT22;12678;51.336;12.406;2023-09-19T13:13:43;22.10;96.70
24518;DHT22;12678;51.336;12.406;2023-09-19T13:16:20;22.20;98.20
24518;DHT22;12678;51.336;12.406;2023-09-19T13:18:50;22.40;97.70
24518;DHT22;12678;51.336;12.406;2023-09-19T13:21:17;22.40;95.70
24518;DHT22;12678;51.336;12.406;2023-09-19T13:23:54;22.40;96.40
24518;DHT22;12678;51.336;12.406;2023-09-19T13:26:27;22.30;94.80
24518;DHT22;12678;51.336;12.406;2023-09-19T13:28:56;22.30;96.10
24518;DHT22;12678;51.336;12.406;2023-09-19T13:31:21;22.20;95.00
24518;DHT22;12678;51.336;12.406;2023-09-19T13:33:49;22.10;94.50
24518;DHT22;12678;51.336;12.406;2023-09-19T13:36:16;22.00;94.70
24518;DHT22;12678;51.336;12.406;2023-09-19T13:38:42;21.90;95.20
24518;DHT22;12678;51.336;12.406;2023-09-19T13:41:09;21.90;95.30
24518;DHT22;12678;51.336;12.406;2023-09-19T13:43:36;22.00;95.60
24518;DHT22;12678;51.336;12.406;2023-09-19T13:46:01;21.90;95.30
24518;DHT22;12678;51.336;12.406;2023-09-19T13:48:27;22.00;95.60
24518;DHT22;12678;51.336;12.406;2023-09-19T13:50:56;22.10;96.70
24518;DHT22;12678;51.336;12.406;2023-09-19T13:53:22;22.10;97.70
24518;DHT22;12678;51.336;12.406;2023-09-19T13:55:47;22.20;97.10
24518;DHT22;12678;51.336;12.406;2023-09-19T13:58:14;22.10;95.90
24518;DHT22;12678;51.336;12.406;2023-09-19T14:00:40;22.10;95.70
24518;DHT22;12678;51.336;12.406;2023-09-19T14:03:06;22.00;95.60
24518;DHT22;12678;51.336;12.406;2023-09-19T14:05:31;22.10;97.20
24518;DHT22;12678;51.336;12.406;2023-09-19T14:07:58;22.20;97.00
24518;DHT22;12678;51.336;12.406;2023-09-19T14:10:28;22.10;94.90
24518;DHT22;12678;51.336;12.406;2023-09-19T14:12:56;22.10;95.50
24518;DHT22;12678;51.336;12.406;2023-09-19T14:15:23;22.10;95.50
24518;DHT22;12678;51.336;12.406;2023-09-19T14:17:59;22.10;94.90
24518;DHT22;12678;51.336;12.406;2023-09-19T14:20:26;22.00;94.90
24518;DHT22;12678;51.336;12.406;2023-09-19T14:22:53;22.00;96.30
24518;DHT22;12678;51.336;12.406;2023-09-19T14:25:18;22.10;96.60
24518;DHT22;12678;51.336;12.406;2023-09-19T14:27:44;22.00;95.20
24518;DHT22;12678;51.336;12.406;2023-09-19T14:30:10;22.00;94.50
24518;DHT22;12678;51.336;12.406;2023-09-19T14:32:36;21.90;94.50
24518;DHT22;12678;51.336;12.406;2023-09-19T14:35:02;22.00;95.20
24518;DHT22;12678;51.336;12.406;2023-09-19T14:37:28;22.00;96.10
24518;DHT22;12678;51.336;12.406;2023-09-19T14:39:54;22.00;94.70
24518;DHT22;12678;51.336;12.406;2023-09-19T14:42:20;22.00;95.90
24518;DHT22;12678;51.336;12.406;2023-09-19T14:44:45;22.00;96.50
24518;DHT22;12678;51.336;12.406;2023-09-19T14:47:12;22.00;94.40
24518;DHT22;12678;51.336;12.406;2023-09-19T14:49:38;21.90;93.70
24518;DHT22;12678;51.336;12.406;2023-09-19T14:52:08;21.90;93.00
24518;DHT22;12678;51.336;12.406;2023-09-19T14:54:34;21.90;95.10
24518;DHT22;12678;51.336;12.406;2023-09-19T14:57:00;21.90;94.00
24518;DHT22;12678;51.336;12.406;2023-09-19T14:59:34;21.90;93.90
24518;DHT22;12678;51.336;12.406;2023-09-19T15:02:04;21.90;93.00
24518;DHT22;12678;51.336;12.406;2023-09-19T15:04:29;21.80;92.80
24518;DHT22;12678;51.336;12.406;2023-09-19T15:06:55;21.80;93.50
24518;DHT22;12678;51.336;12.406;2023-09-19T15:09:24;21.70;93.20
24518;DHT22;12678;51.336;12.406;2023-09-19T15:11:52;21.70;95.00
24518;DHT22;12678;51.336;12.406;2023-09-19T15:14:18;21.70;94.00
24518;DHT22;12678;51.336;12.406;2023-09-19T15:16:43;21.70;93.70
24518;DHT22;12678;51.336;12.406;2023-09-19T15:19:09;21.60;93.90
24518;DHT22;12678;51.336;12.406;2023-09-19T15:21:35;21.60;94.80
24518;DHT22;12678;51.336;12.406;2023-09-19T15:24:03;21.60;93.50
24518;DHT22;12678;51.336;12.406;2023-09-19T15:26:29;21.60;93.10
24518;DHT22;12678;51.336;12.406;2023-09-19T15:28:55;21.50;93.80
24518;DHT22;12678;51.336;12.406;2023-09-19T15:31:21;21.50;93.20
24518;DHT22;12678;51.336;12.406;2023-09-19T15:33:47;21.50;92.00
24518;DHT22;12678;51.336;12.406;2023-09-19T15:36:15;21.50;93.40
24518;DHT22;12678;51.336;12.406;2023-09-19T15:41:19;21.60;92.10
24518;DHT22;12678;51.336;12.406;2023-09-19T15:43:45;21.50;92.40
24518;DHT22;12678;51.336;12.406;2023-09-19T15:46:10;21.50;91.90
24518;DHT22;12678;51.336;12.406;2023-09-19T15:48:36;21.50;92.00
24518;DHT22;12678;51.336;12.406;2023-09-19T15:51:05;21.50;93.80
24518;DHT22;12678;51.336;12.406;2023-09-19T15:53:47;21.40;91.80
24518;DHT22;12678;51.336;12.406;2023-09-19T15:56:14;21.40;93.60
24518;DHT22;12678;51.336;12.406;2023-09-19T15:58:41;21.30;92.00
24518;DHT22;12678;51.336;12.406;2023-09-19T16:01:07;21.20;93.10
24518;DHT22;12678;51.336;12.406;2023-09-19T16:03:38;21.20;92.50
24518;DHT22;12678;51.336;12.406;2023-09-19T16:06:11;21.10;91.50
24518;DHT22;12678;51.336;12.406;2023-09-19T16:08:44;21.10;94.60
24518;DHT22;12678;51.336;12.406;2023-09-19T16:11:11;21.10;94.30
24518;DHT22;12678;51.336;12.406;2023-09-19T16:13:37;21.10;92.70
24518;DHT22;12678;51.336;12.406;2023-09-19T16:16:04;21.20;93.10
24518;DHT22;12678;51.336;12.406;2023-09-19T16:18:30;21.10;92.20
24518;DHT22;12678;51.336;12.406;2023-09-19T16:21:02;21.10;93.40